Terminal Aerodrome Forecast
Issued by NWS

Home | Current Version | Previous Version | Text Only | Print | Product List | Glossary On
Versions: 1 2 3 4 5 6 7 8 9 10 11 12 13 14 15 16 17 18 19 20 21
000
FTUS41 KPBZ 280500
TAFZZV
TAF
KZZV 280538Z 2806/2906 26006KT P6SM SCT050
     FM280900 29005KT 5SM BR BKN020
     FM281800 31013G18KT P6SM VCSH BKN025
     FM282100 31013G18KT P6SM VCSH BKN035
     FM290300 30005KT P6SM SCT035=

USA.gov is the U.S. government's official web portal to all federal, state and local government web resources and services.